Time;durP1;ratioP1;P1;durP2;ratioP2;P2;SDS_P1;SDS_P2;PMS_P1;PMS_P2;Temp;Humidity;BMP_temperature;BMP_pressure;BME280_temperature;BME280_humidity;BME280_pressure;Samples;Min_cycle;Max_cycle;Signal;HPM_P1;HPM_P2
2021/07/08 00:01:13;;;;;;;24.50;8.68;;;14.70;99.90;;;13.46;100.00;102699.09;5023119;28;20142;-72
2021/07/08 00:03:38;;;;;;;25.23;9.43;;;14.70;99.90;;;13.42;100.00;102740.63;5018926;28;20150;-72
2021/07/08 00:06:04;;;;;;;30.58;9.63;;;14.70;99.90;;;13.42;100.00;102745.94;5007310;28;20066;-71
2021/07/08 00:08:30;;;;;;;25.58;10.10;;;14.60;99.90;;;13.42;100.00;102792.69;5020746;28;20093;-72
2021/07/08 00:10:56;;;;;;;22.58;9.10;;;14.60;99.90;;;13.43;100.00;102812.94;5022950;28;21105;-72
2021/07/08 00:13:27;;;;;;;29.73;9.60;;;14.60;99.90;;;13.40;100.00;102847.44;5019775;28;20090;-72
2021/07/08 00:15:55;;;;;;;28.38;10.00;;;14.70;99.90;;;13.56;100.00;102891.13;5023772;28;20055;-72
2021/07/08 00:18:24;;;;;;;30.00;10.60;;;14.80;99.90;;;13.59;100.00;102914.88;5019899;28;20486;-71
2021/07/08 00:20:51;;;;;;;25.83;10.10;;;14.80;99.90;;;13.59;100.00;102936.06;5001757;28;20058;-71
2021/07/08 00:23:20;;;;;;;27.65;9.50;;;14.80;99.90;;;13.60;100.00;102931.63;5022607;28;20584;-72
2021/07/08 00:25:47;;;;;;;28.70;10.43;;;14.80;99.90;;;13.64;100.00;102979.16;5020866;28;20436;-70
2021/07/08 00:28:15;;;;;;;22.92;8.98;;;14.80;99.90;;;13.61;100.00;103008.38;5022411;28;20074;-72
2021/07/08 00:30:46;;;;;;;24.30;9.93;;;14.80;99.90;;;13.60;100.00;103048.97;5021158;28;20053;-71
2021/07/08 00:33:13;;;;;;;28.25;9.60;;;14.70;99.90;;;13.54;100.00;103022.63;5030366;28;20108;-71
2021/07/08 00:35:40;;;;;;;27.42;9.77;;;14.70;99.90;;;13.51;100.00;103036.81;5029361;28;20073;-72
2021/07/08 00:38:07;;;;;;;27.58;10.20;;;14.70;99.90;;;13.48;100.00;103025.44;5013444;28;20053;-72
2021/07/08 00:40:34;;;;;;;28.50;9.60;;;14.60;99.90;;;13.35;100.00;103363.53;5004725;28;20062;-72
2021/07/08 00:43:01;;;;;;;28.98;10.05;;;14.60;99.90;;;13.37;100.00;103848.72;5018236;28;20076;-72
2021/07/08 00:45:28;;;;;;;28.73;9.68;;;14.60;99.90;;;13.44;100.00;103712.75;5020584;28;20146;-72
2021/07/08 00:47:55;;;;;;;28.80;10.40;;;14.60;99.90;;;13.41;100.00;103568.97;5037565;28;20521;-72
2021/07/08 00:50:31;;;;;;;27.90;10.05;;;14.60;99.90;;;13.46;100.00;103425.13;5020721;28;20109;-72
2021/07/08 00:52:57;;;;;;;30.23;10.13;;;14.60;99.90;;;13.42;100.00;103419.91;5013527;28;20055;-71
2021/07/08 00:55:23;;;;;;;29.75;10.45;;;14.60;99.90;;;13.33;100.00;103281.53;5005129;28;20142;-72
2021/07/08 00:57:52;;;;;;;26.42;10.20;;;14.50;99.90;;;13.21;100.00;103202.31;5031238;28;20063;-72
2021/07/08 01:00:32;;;;;;;23.90;10.27;;;14.40;99.90;;;13.11;100.00;103161.09;5020681;28;20398;-72
2021/07/08 01:02:59;;;;;;;18.33;8.35;;;14.40;99.90;;;13.07;100.00;103220.25;4987101;28;20601;-71
2021/07/08 01:05:32;;;;;;;27.75;10.38;;;14.30;99.90;;;13.03;100.00;103192.09;5035957;28;20078;-72
2021/07/08 01:08:00;;;;;;;29.92;9.82;;;14.20;99.90;;;12.93;100.00;103215.16;5018165;28;20143;-71
2021/07/08 01:10:27;;;;;;;20.80;9.18;;;14.20;99.90;;;12.84;100.00;103250.56;5022896;28;20361;-71
2021/07/08 01:12:54;;;;;;;23.30;8.90;;;14.10;99.90;;;12.81;100.00;103244.47;5020154;28;20509;-72
2021/07/08 01:15:21;;;;;;;20.65;9.88;;;14.00;99.90;;;12.72;100.00;103251.66;5027905;28;20071;-71
2021/07/08 01:17:47;;;;;;;27.48;9.95;;;14.00;99.90;;;12.70;100.00;103266.66;5030692;28;20080;-72
2021/07/08 01:20:18;;;;;;;28.25;10.65;;;14.00;99.90;;;12.70;100.00;103265.78;5006646;28;20462;-72
2021/07/08 01:22:44;;;;;;;26.77;10.90;;;14.00;99.90;;;12.79;100.00;103173.09;5027316;28;20146;-72
2021/07/08 01:25:13;;;;;;;33.30;11.73;;;14.00;99.90;;;12.79;100.00;103178.41;5021082;28;20527;-72
2021/07/08 01:27:39;;;;;;;28.95;11.73;;;14.10;99.90;;;12.84;100.00;103181.81;5018930;28;20048;-71
2021/07/08 01:30:10;;;;;;;38.13;12.55;;;14.10;99.90;;;12.85;100.00;103204.75;4993805;28;20073;-71
2021/07/08 01:32:37;;;;;;;32.92;10.75;;;14.10;99.90;;;12.79;100.00;103220.69;5020858;28;20113;-72
2021/07/08 01:35:07;;;;;;;28.13;12.23;;;14.00;99.90;;;12.77;100.00;103259.50;5026281;28;20136;-71
2021/07/08 01:37:33;;;;;;;26.67;11.68;;;14.00;99.90;;;12.75;100.00;103297.44;5037456;28;20070;-72
2021/07/08 01:40:01;;;;;;;30.88;11.80;;;14.00;99.90;;;12.75;100.00;103335.31;5038843;28;20254;-71
2021/07/08 01:42:28;;;;;;;41.28;11.52;;;14.00;99.90;;;12.66;100.00;103340.75;5001284;28;20150;-72
2021/07/08 01:44:54;;;;;;;28.55;12.30;;;13.90;99.90;;;12.68;100.00;103368.03;5021779;28;20322;-72
2021/07/08 01:47:21;;;;;;;30.25;11.95;;;14.00;99.90;;;12.73;100.00;103367.06;5027379;28;20069;-72
2021/07/08 01:49:47;;;;;;;36.40;13.27;;;14.00;99.90;;;12.76;100.00;103383.78;5021782;28;20589;-72
2021/07/08 01:52:13;;;;;;;34.10;12.85;;;14.00;99.90;;;12.75;100.00;103404.06;5030164;28;20065;-72
2021/07/08 01:54:39;;;;;;;27.85;12.02;;;14.00;99.90;;;12.80;100.00;103404.84;5012363;28;20200;-72
2021/07/08 01:57:05;;;;;;;26.27;12.43;;;14.00;99.90;;;12.73;100.00;103451.66;5019741;28;20076;-72
2021/07/08 01:59:31;;;;;;;24.83;12.40;;;14.00;99.90;;;12.68;100.00;103412.97;5019639;28;20056;-70
2021/07/08 02:01:57;;;;;;;32.03;12.68;;;13.90;99.90;;;12.67;100.00;103425.28;5021125;28;20137;-72
2021/07/08 02:04:23;;;;;;;25.60;12.25;;;12.60;99.90;;;12.66;100.00;103546.94;5019469;28;20084;-72
2021/07/08 02:06:49;;;;;;;24.58;11.52;;;13.90;99.90;;;12.61;100.00;103411.28;5024124;28;20565;-71
2021/07/08 02:09:15;;;;;;;30.15;11.40;;;13.90;99.90;;;12.61;100.00;103416.56;5012702;28;20074;-72
2021/07/08 02:11:41;;;;;;;28.02;12.48;;;13.80;99.90;;;12.63;100.00;103563.66;5020748;28;20055;-72
2021/07/08 02:14:07;;;;;;;27.73;13.05;;;13.90;99.90;;;12.67;100.00;103512.53;5006320;28;20060;-72
2021/07/08 02:16:35;;;;;;;35.47;14.05;;;13.90;99.90;;;12.70;100.00;103494.00;5006581;28;20060;-71
2021/07/08 02:19:06;;;;;;;39.75;14.95;;;14.00;99.90;;;12.88;100.00;103506.13;5024892;28;20063;-71
2021/07/08 02:21:32;;;;;;;33.58;15.02;;;14.20;99.90;;;13.01;100.00;103565.03;5023779;28;20067;-72
2021/07/08 02:23:59;;;;;;;36.53;15.60;;;14.20;99.90;;;13.03;100.00;103617.94;5021731;28;20505;-72
2021/07/08 02:26:25;;;;;;;37.50;14.40;;;14.30;99.90;;;13.03;100.00;103565.91;5008360;28;20469;-72
2021/07/08 02:28:52;;;;;;;38.05;14.98;;;14.30;99.90;;;13.00;100.00;103647.94;5029968;28;20467;-71
2021/07/08 02:31:18;;;;;;;34.67;14.95;;;14.20;99.90;;;12.99;100.00;103600.34;5025575;28;20076;-71
2021/07/08 02:33:45;;;;;;;38.13;14.95;;;14.30;99.90;;;13.09;100.00;103602.00;5020403;28;20468;-72
2021/07/08 02:36:12;;;;;;;41.35;16.48;;;14.40;99.90;;;13.14;100.00;103592.22;5022796;28;21628;-72
2021/07/08 02:38:38;;;;;;;40.10;16.25;;;14.40;99.90;;;13.10;100.00;103582.56;5006825;28;20154;-71
2021/07/08 02:41:06;;;;;;;49.80;17.23;;;14.30;99.90;;;13.10;100.00;103636.34;5024130;28;20056;-72
2021/07/08 02:43:33;;;;;;;31.45;15.55;;;14.30;99.90;;;13.05;100.00;103695.50;5020480;28;20073;-72
2021/07/08 02:46:00;;;;;;;43.33;17.08;;;14.30;99.90;;;13.02;100.00;103675.22;5024406;28;20064;-72
2021/07/08 02:48:27;;;;;;;28.25;14.10;;;14.20;99.90;;;12.90;100.00;103636.56;5020352;28;20057;-71
2021/07/08 02:50:56;;;;;;;31.15;14.82;;;14.10;99.90;;;12.76;100.00;103614.66;5023823;28;20069;-72
2021/07/08 02:53:23;;;;;;;26.50;13.48;;;13.90;99.90;;;12.62;100.00;103672.97;5006907;28;20260;-72
2021/07/08 02:55:50;;;;;;;24.20;11.93;;;13.90;99.90;;;12.50;100.00;103695.09;5006670;28;20064;-72
2021/07/08 02:58:17;;;;;;;24.88;12.40;;;13.80;99.90;;;12.49;100.00;103669.53;5023315;28;20079;-71
2021/07/08 03:00:44;;;;;;;27.80;13.45;;;13.80;99.90;;;12.58;100.00;103657.13;5024024;28;20078;-72
2021/07/08 03:03:11;;;;;;;29.02;14.25;;;13.90;99.90;;;12.69;100.00;103671.13;5031658;28;20543;-70
2021/07/08 03:05:38;;;;;;;33.40;13.02;;;13.90;99.90;;;12.71;100.00;103709.88;5038944;28;20066;-71
2021/07/08 03:08:04;;;;;;;38.58;13.88;;;13.90;99.90;;;12.69;100.00;103677.28;5023048;28;20059;-72
2021/07/08 03:10:31;;;;;;;40.42;14.70;;;13.90;99.90;;;12.70;100.00;103745.16;5008583;28;20055;-71
2021/07/08 03:12:58;;;;;;;27.80;15.15;;;14.00;99.90;;;12.77;100.00;103753.06;5021583;28;20080;-72
2021/07/08 03:15:25;;;;;;;33.00;15.98;;;14.10;99.90;;;12.87;100.00;103762.66;5022721;28;20428;-72
2021/07/08 03:17:52;;;;;;;31.00;16.70;;;14.20;99.90;;;13.02;100.00;103730.78;5006350;28;20060;-72
2021/07/08 03:20:27;;;;;;;38.03;16.65;;;14.30;99.90;;;12.95;100.00;103702.63;5025010;28;20090;-72
2021/07/08 03:22:54;;;;;;;36.53;15.18;;;14.30;99.90;;;12.91;100.00;103695.63;5014317;28;20119;-71
2021/07/08 03:25:23;;;;;;;29.50;14.80;;;14.30;99.90;;;12.93;100.00;103710.56;5007126;28;20050;-71
2021/07/08 03:27:50;;;;;;;25.35;12.68;;;14.30;99.90;;;13.00;100.00;103705.22;5021347;28;20066;-72
2021/07/08 03:30:20;;;;;;;32.38;13.68;;;14.30;99.90;;;13.07;100.00;103691.06;5022402;28;20092;-72
2021/07/08 03:32:49;;;;;;;30.13;14.38;;;14.40;99.90;;;13.14;100.00;103687.47;5023366;28;20159;-71
2021/07/08 03:35:15;;;;;;;32.75;14.23;;;14.50;99.90;;;13.29;100.00;103739.41;5023506;28;20054;-71
2021/07/08 03:37:43;;;;;;;30.52;15.57;;;14.60;99.90;;;13.43;100.00;103734.81;5004918;28;20343;-71
2021/07/08 03:40:12;;;;;;;32.33;14.98;;;14.70;99.90;;;13.49;100.00;103606.81;5033806;28;20059;-71
2021/07/08 03:42:41;;;;;;;27.30;14.93;;;14.80;99.90;;;13.54;100.00;103586.44;5005784;28;20069;-72
2021/07/08 03:45:09;;;;;;;36.47;16.48;;;14.80;99.90;;;13.61;100.00;103622.56;5020974;28;20063;-71
2021/07/08 03:47:36;;;;;;;29.73;14.88;;;14.90;99.90;;;13.77;100.00;105023.50;5016952;28;20060;-72
2021/07/08 03:50:07;;;;;;;35.55;16.52;;;15.10;99.90;;;13.86;100.00;104412.44;5032897;28;20052;-71
2021/07/08 03:52:33;;;;;;;33.35;15.95;;;15.20;99.90;;;13.98;100.00;104408.91;5022355;28;20065;-72
2021/07/08 03:54:59;;;;;;;32.92;15.90;;;15.20;99.90;;;14.07;100.00;104228.66;5023425;28;20500;-71
2021/07/08 03:57:25;;;;;;;36.60;17.52;;;15.50;99.90;;;14.45;100.00;104108.25;5032291;28;20075;-71
2021/07/08 03:59:51;;;;;;;30.02;15.55;;;15.90;99.90;;;14.73;100.00;104105.34;5020746;28;20041;-72
2021/07/08 04:02:17;;;;;;;25.67;14.73;;;16.20;99.90;;;15.02;100.00;104035.16;5015068;28;20073;-72
2021/07/08 04:04:44;;;;;;;19.50;12.38;;;16.20;99.90;;;15.05;100.00;103931.59;5018873;28;20098;-71
2021/07/08 04:07:10;;;;;;;26.45;12.00;;;16.20;99.90;;;15.00;100.00;103960.00;5023519;28;20481;-71
2021/07/08 04:09:36;;;;;;;20.15;10.43;;;16.20;99.90;;;15.00;100.00;103748.56;5035458;28;20138;-72
2021/07/08 04:12:02;;;;;;;20.10;10.18;;;16.20;99.90;;;14.93;100.00;103720.41;5023965;28;20060;-72
2021/07/08 04:14:28;;;;;;;21.17;9.88;;;16.20;99.90;;;15.05;100.00;103867.91;5021940;28;20469;-71
2021/07/08 04:16:54;;;;;;;19.67;9.90;;;16.20;99.90;;;14.96;100.00;103811.44;5005844;28;20024;-71
2021/07/08 04:19:20;;;;;;;22.30;10.25;;;16.30;99.90;;;15.26;100.00;103736.63;5006689;28;20035;-71
2021/07/08 04:21:46;;;;;;;17.77;9.43;;;16.60;99.90;;;15.32;100.00;103660.41;5005084;28;20403;-71
2021/07/08 04:24:12;;;;;;;18.48;9.30;;;16.50;99.90;;;15.27;100.00;103699.44;5006563;28;20124;-72
2021/07/08 04:26:38;;;;;;;22.42;8.63;;;16.60;99.90;;;15.30;100.00;103763.09;5000116;28;20062;-71
2021/07/08 04:29:04;;;;;;;20.38;9.90;;;16.70;99.90;;;15.46;100.00;103645.97;5022235;28;20397;-72
2021/07/08 04:31:31;;;;;;;17.58;8.55;;;16.90;99.90;;;15.82;100.00;103734.66;5021217;28;20068;-72
2021/07/08 04:33:57;;;;;;;17.30;7.65;;;17.20;99.90;;;16.22;100.00;103821.53;5022485;28;20392;-71
2021/07/08 04:36:24;;;;;;;23.02;7.13;;;17.50;99.90;;;16.50;100.00;103796.97;5037033;28;20041;-72
2021/07/08 04:38:53;;;;;;;19.77;7.60;;;17.70;99.90;;;16.71;100.00;103761.03;5009915;28;20021;-71
2021/07/08 04:41:21;;;;;;;12.88;7.15;;;18.20;99.90;;;17.14;98.62;103720.03;4995329;28;20036;-72
2021/07/08 04:43:47;;;;;;;16.90;6.97;;;18.60;99.90;;;17.11;97.52;103699.69;5021272;28;20501;-72
2021/07/08 04:46:14;;;;;;;13.95;6.65;;;18.50;99.90;;;17.07;97.88;103692.72;5010638;28;20041;-71
2021/07/08 04:48:42;;;;;;;19.63;6.75;;;18.20;99.90;;;16.86;98.76;103670.19;5018219;28;20032;-72
2021/07/08 04:51:09;;;;;;;19.95;7.22;;;18.10;99.90;;;16.93;99.97;103644.28;5020214;28;20423;-72
2021/07/08 04:53:36;;;;;;;23.52;7.60;;;17.90;99.90;;;16.46;100.00;103659.66;5021617;28;20021;-72
2021/07/08 04:56:02;;;;;;;17.95;6.93;;;17.70;99.90;;;16.44;100.00;103940.75;5005556;28;20037;-72
2021/07/08 04:58:28;;;;;;;20.67;7.30;;;17.60;99.90;;;16.42;100.00;103759.94;5037167;28;20033;-72
2021/07/08 05:00:54;;;;;;;23.45;7.25;;;17.60;99.90;;;16.28;100.00;103704.41;5020459;28;20017;-71
2021/07/08 05:03:20;;;;;;;20.02;7.25;;;17.60;99.90;;;16.52;100.00;103684.34;5021333;28;20618;-71
2021/07/08 05:05:47;;;;;;;23.35;8.80;;;17.70;99.90;;;16.64;100.00;103643.25;5018330;28;20036;-71
2021/07/08 05:08:13;;;;;;;11.48;7.13;;;17.80;99.90;;;16.59;100.00;103582.19;5021723;28;20025;-72
2021/07/08 05:10:39;;;;;;;16.92;7.60;;;17.70;99.90;;;16.47;100.00;103594.94;5003984;28;20602;-71
2021/07/08 05:13:07;;;;;;;22.35;7.68;;;17.70;99.90;;;16.40;100.00;103583.59;5022674;28;20556;-71
2021/07/08 05:15:35;;;;;;;21.45;7.32;;;17.60;99.90;;;16.35;100.00;103630.69;5014887;28;20071;-72
2021/07/08 05:18:01;;;;;;;20.35;7.57;;;17.60;99.90;;;16.46;100.00;103591.41;5032093;28;20029;-71
2021/07/08 05:20:27;;;;;;;17.25;7.50;;;17.60;99.90;;;16.41;100.00;103625.19;5003500;28;20021;-72
2021/07/08 05:23:02;;;;;;;17.75;7.85;;;17.50;99.90;;;16.36;100.00;103651.91;5013747;28;20041;-71
2021/07/08 05:25:30;;;;;;;13.88;7.65;;;17.50;99.90;;;16.44;100.00;103678.34;5018438;28;20111;-71
2021/07/08 05:27:56;;;;;;;23.77;7.88;;;17.50;99.90;;;16.31;100.00;109770.38;5020123;28;20056;-72
2021/07/08 05:30:23;;;;;;;17.48;7.68;;;17.40;99.90;;;16.28;100.00;108532.13;5002668;28;20029;-72
2021/07/08 05:32:49;;;;;;;13.73;7.55;;;17.50;99.90;;;16.39;100.00;106675.66;5022787;28;20062;-72
2021/07/08 05:35:15;;;;;;;15.32;8.35;;;17.40;99.90;;;16.34;100.00;105687.53;5001800;28;20100;-72
2021/07/08 05:37:41;;;;;;;16.25;7.50;;;17.40;99.90;;;16.38;100.00;105013.63;5027054;28;20503;-71
2021/07/08 05:40:08;;;;;;;21.48;7.80;;;17.50;99.90;;;16.37;100.00;104809.69;5013695;28;20029;-71
2021/07/08 05:42:34;;;;;;;12.32;7.88;;;17.40;99.90;;;16.09;100.00;104387.13;5003248;28;20459;-71
2021/07/08 05:45:00;;;;;;;17.55;7.70;;;17.40;99.90;;;16.32;100.00;104396.59;5021888;28;20025;-72
2021/07/08 05:47:26;;;;;;;10.55;7.43;;;17.50;99.90;;;16.49;100.00;104370.66;5018181;28;20025;-72
2021/07/08 05:49:54;;;;;;;11.57;7.07;;;17.60;99.90;;;16.43;100.00;104194.31;5001586;28;20107;-71
2021/07/08 05:52:21;;;;;;;18.75;7.78;;;17.50;99.90;;;16.25;100.00;104108.63;4996021;28;20424;-71
2021/07/08 05:54:46;;;;;;;11.45;6.45;;;17.60;99.90;;;16.63;100.00;104186.00;5008887;28;20033;-72
2021/07/08 05:57:12;;;;;;;14.27;7.70;;;17.80;99.90;;;16.67;100.00;104113.19;5024721;28;20029;-71
2021/07/08 05:59:38;;;;;;;13.95;7.55;;;18.00;99.90;;;17.04;100.00;104115.19;5006966;28;20037;-71
2021/07/08 06:02:05;;;;;;;10.93;7.00;;;18.50;99.90;;;17.92;99.45;104040.41;5009139;28;20489;-71
2021/07/08 06:04:30;;;;;;;8.60;5.47;;;19.40;99.90;;;18.61;94.25;104059.91;5024318;28;20029;-71
2021/07/08 06:06:57;;;;;;;12.90;5.40;;;19.90;99.90;;;18.72;92.69;103976.84;5023007;28;20036;-72
2021/07/08 06:09:23;;;;;;;12.27;6.03;;;19.80;99.90;;;18.42;93.52;103967.94;5024123;28;20086;-72
2021/07/08 06:11:50;;;;;;;17.42;5.63;;;19.20;99.90;;;17.61;97.12;103851.06;5007980;28;20544;-72
2021/07/08 06:14:16;;;;;;;13.25;5.95;;;19.20;99.90;;;18.20;96.41;103856.53;5022641;28;20155;-72
2021/07/08 06:16:42;;;;;;;9.15;5.28;;;19.40;99.90;;;18.38;94.43;103791.09;5006547;28;20049;-72
2021/07/08 06:19:08;;;;;;;10.88;5.75;;;19.30;99.90;;;18.33;95.35;103744.16;5024845;28;20031;-72
2021/07/08 06:21:34;;;;;;;14.93;6.10;;;19.10;99.90;;;17.90;98.08;103693.00;5024764;28;20531;-71
2021/07/08 06:24:00;;;;;;;8.00;4.80;;;19.20;99.90;;;18.20;97.06;103690.31;5025147;28;20044;-71
2021/07/08 06:26:26;;;;;;;9.55;4.60;;;19.30;99.90;;;18.47;95.83;103687.69;5023315;28;20040;-71
2021/07/08 06:28:52;;;;;;;8.55;5.13;;;19.50;99.90;;;18.47;95.34;103687.69;5040980;28;20118;-72
2021/07/08 06:31:18;;;;;;;9.45;4.80;;;19.50;99.90;;;18.60;94.71;103689.03;5021757;28;20462;-72
2021/07/08 06:33:44;;;;;;;7.18;4.72;;;19.60;99.90;;;18.59;95.18;103666.78;5035076;28;20033;-72
2021/07/08 06:36:11;;;;;;;13.00;4.88;;;19.60;99.90;;;18.68;95.08;103627.38;5023734;28;20041;-72
2021/07/08 06:38:37;;;;;;;8.82;4.93;;;19.50;99.90;;;18.25;97.46;103701.72;5023306;28;20365;-71
2021/07/08 06:41:03;;;;;;;9.48;4.97;;;19.50;99.90;;;18.43;96.69;103765.16;5016580;28;20079;-72
2021/07/08 06:43:28;;;;;;;15.55;5.57;;;19.60;99.90;;;18.40;95.98;103679.88;5005986;28;20071;-71
2021/07/08 06:45:55;;;;;;;8.43;4.65;;;19.70;99.90;;;18.65;96.13;103618.53;5025703;28;20021;-71
2021/07/08 06:48:21;;;;;;;12.90;4.95;;;20.00;99.90;;;19.12;94.95;103606.25;5021027;28;20032;-72
2021/07/08 06:50:46;;;;;;;8.65;3.90;;;20.10;99.90;;;19.06;92.73;103517.41;5023903;28;20500;-71
2021/07/08 06:53:12;;;;;;;6.22;3.90;;;20.20;99.90;;;19.22;93.61;104141.88;5024244;28;20063;-71
2021/07/08 06:55:39;;;;;;;6.70;4.22;;;20.60;99.90;;;19.81;90.71;103906.59;5023599;28;20029;-72
2021/07/08 06:58:06;;;;;;;10.20;3.85;;;20.80;99.90;;;19.92;90.40;103686.06;5016148;28;20481;-72
2021/07/08 07:00:38;;;;;;;10.43;3.65;;;21.10;99.90;;;20.56;87.16;103728.06;5022453;28;20108;-72
2021/07/08 07:03:06;;;;;;;5.72;3.40;;;21.80;99.90;;;21.19;83.32;103744.19;5023110;28;20055;-71
2021/07/08 07:05:32;;;;;;;5.60;3.45;;;22.00;99.90;;;21.04;83.59;103676.94;5033207;28;20420;-72
2021/07/08 07:07:59;;;;;;;7.97;3.58;;;22.00;99.90;;;20.98;82.55;103623.63;5023227;28;20018;-70
2021/07/08 07:10:28;;;;;;;7.50;3.63;;;21.60;99.90;;;20.55;85.16;103538.97;5022240;28;20174;-72
2021/07/08 07:12:57;;;;;;;4.65;3.60;;;21.30;99.90;;;19.83;88.34;103465.41;5017302;28;20359;-72
2021/07/08 07:15:29;;;;;;;7.35;3.40;;;20.90;99.90;;;19.64;91.25;103639.00;5022880;28;20078;-72
2021/07/08 07:17:57;;;;;;;9.40;3.30;;;20.70;99.90;;;19.57;91.09;103517.25;5021512;28;20032;-71
2021/07/08 07:20:23;;;;;;;4.55;3.17;;;21.00;99.90;;;20.44;89.09;103464.50;5006853;28;20025;-71
2021/07/08 07:22:50;;;;;;;10.27;3.13;;;21.30;99.90;;;20.46;86.25;103419.81;5023657;28;20098;-72
2021/07/08 07:25:20;;;;;;;6.78;2.97;;;21.30;99.90;;;20.31;87.91;103401.78;5021866;28;20055;-72
2021/07/08 07:27:49;;;;;;;5.75;3.38;;;21.40;99.90;;;20.48;86.89;103381.34;5020367;28;20029;-71
2021/07/08 07:30:17;;;;;;;5.97;3.05;;;21.30;99.90;;;20.43;87.48;103342.34;5000912;28;20026;-72
2021/07/08 07:32:43;;;;;;;6.57;3.10;;;21.10;99.90;;;19.84;90.53;103299.53;5038619;28;20028;-72
2021/07/08 07:35:11;;;;;;;8.82;3.63;;;20.80;99.90;;;19.52;91.54;103321.47;5019012;28;20021;-72
2021/07/08 07:37:37;;;;;;;4.80;3.47;;;20.40;99.90;;;19.25;92.57;103343.09;5022526;28;20385;-71
2021/07/08 07:40:05;;;;;;;3.58;2.97;;;20.60;99.90;;;19.67;93.05;103368.91;5030504;28;20055;-72
2021/07/08 07:42:33;;;;;;;9.93;4.03;;;20.70;99.90;;;19.79;92.04;103339.00;5007658;28;20087;-71
2021/07/08 07:45:00;;;;;;;10.05;3.80;;;20.70;99.90;;;19.57;91.86;103277.59;5004430;28;20401;-72
2021/07/08 07:47:28;;;;;;;4.03;3.38;;;20.70;99.90;;;19.68;91.67;103306.50;5018233;28;20028;-72
2021/07/08 07:49:55;;;;;;;5.95;3.50;;;20.80;99.90;;;20.13;88.17;103323.22;5019280;28;20029;-72
2021/07/08 07:52:21;;;;;;;5.95;3.40;;;21.00;99.90;;;20.04;88.91;103312.03;5018865;28;20079;-72
2021/07/08 07:54:47;;;;;;;9.70;3.47;;;21.00;99.90;;;20.26;88.00;103308.38;5003310;28;20393;-72
2021/07/08 07:57:13;;;;;;;4.18;3.08;;;21.20;99.90;;;20.43;87.79;103296.84;5011259;28;20108;-72
2021/07/08 07:59:40;;;;;;;5.07;3.63;;;21.30;99.90;;;20.51;87.34;103310.72;5002575;28;20382;-71
2021/07/08 08:02:11;;;;;;;7.65;3.38;;;21.30;99.90;;;20.58;87.12;103558.47;5009122;28;20055;-72
2021/07/08 08:10:13;;;;;;;5.30;2.80;;;21.20;99.90;;;20.24;89.93;103375.31;5005833;28;20033;-72
2021/07/08 08:12:40;;;;;;;4.35;2.90;;;21.30;99.90;;;20.49;87.40;103375.03;5009197;28;20028;-72
2021/07/08 08:15:09;;;;;;;2.85;2.50;;;21.50;99.90;;;20.74;86.43;103395.34;4992543;28;20026;-71
2021/07/08 08:17:38;;;;;;;4.47;2.88;;;21.60;99.90;;;20.86;85.36;103383.16;5007572;28;20027;-72
2021/07/08 08:20:06;;;;;;;4.45;3.05;;;21.60;99.90;;;20.69;86.17;103638.28;5019375;28;20557;-72
2021/07/08 08:22:32;;;;;;;4.38;2.90;;;21.40;99.90;;;20.31;86.90;103441.91;4975310;28;20505;-72
2021/07/08 08:24:58;;;;;;;7.93;3.55;;;21.30;99.90;;;20.11;88.14;103368.78;5000064;28;20067;-72
2021/07/08 08:27:24;;;;;;;7.55;3.22;;;21.10;99.90;;;20.00;89.53;103339.84;5006572;28;20032;-72
2021/07/08 08:29:50;;;;;;;6.00;3.45;;;21.00;99.90;;;19.97;89.85;103336.44;4990535;28;20101;-71
2021/07/08 08:32:16;;;;;;;6.65;3.72;;;21.00;99.90;;;20.01;90.00;103330.00;4984152;28;20030;-71
2021/07/08 08:34:42;;;;;;;6.78;4.10;;;21.00;99.90;;;20.00;89.41;103323.81;5007319;28;20036;-72
2021/07/08 08:37:08;;;;;;;7.18;4.00;;;21.00;99.90;;;20.14;89.64;103293.75;4999853;28;20033;-72
2021/07/08 08:39:34;;;;;;;4.53;3.67;;;21.30;99.90;;;20.25;88.88;103299.44;5017065;28;20067;-72
2021/07/08 08:42:00;;;;;;;5.82;3.40;;;21.20;99.90;;;20.29;89.60;103294.84;5020414;28;20013;-71
2021/07/08 08:44:26;;;;;;;4.40;3.00;;;21.50;99.90;;;20.83;86.16;103319.91;5019763;28;20528;-71
2021/07/08 08:46:53;;;;;;;4.95;3.40;;;21.60;99.90;;;20.88;87.62;103306.28;4999019;28;20080;-72
2021/07/08 08:49:19;;;;;;;7.22;3.30;;;22.30;99.90;;;22.15;81.60;103405.25;5022072;28;20330;-71
2021/07/08 08:51:46;;;;;;;5.65;3.00;;;23.10;99.90;;;22.76;77.60;103420.72;5041756;28;20102;-71
2021/07/08 08:54:12;;;;;;;3.88;2.70;;;23.70;99.90;;;22.86;75.74;103421.94;5024495;28;20455;-71
2021/07/08 08:56:38;;;;;;;4.32;2.78;;;23.30;99.90;;;22.32;77.69;103351.56;5026859;28;20032;-72
2021/07/08 08:59:04;;;;;;;6.05;3.00;;;23.10;99.90;;;21.95;78.59;103316.00;5038566;28;20021;-70
2021/07/08 09:02:07;;;;;;;12.38;6.68;;;22.90;99.90;;;22.05;80.43;103319.03;4995235;28;20234;-71
2021/07/08 09:04:50;;;;;;;4.35;2.80;;;22.90;99.90;;;21.59;78.36;103249.09;5017592;28;20061;-71
2021/07/08 09:07:45;;;;;;;2.95;2.35;;;22.70;99.90;;;21.67;79.09;103262.97;4955501;28;20065;-71
2021/07/08 09:10:31;;;;;;;5.75;2.45;;;22.60;99.90;;;21.48;78.94;103218.38;4982267;28;20052;-72
2021/07/08 09:13:06;;;;;;;10.65;1.83;;;22.70;99.90;;;21.98;80.37;103288.97;4982941;28;20044;-71
2021/07/08 09:15:45;;;;;;;5.90;2.17;;;22.90;99.90;;;22.25;77.20;103272.34;4969057;28;20039;-72
2021/07/08 09:18:37;;;;;;;4.57;2.13;;;23.00;99.90;;;22.25;77.16;103259.81;4970328;28;20287;-71
2021/07/08 09:21:25;;;;;;;2.90;2.08;;;22.60;99.90;;;21.56;78.88;103196.53;4960759;28;20061;-72
2021/07/08 09:24:27;;;;;;;3.63;1.85;;;22.70;99.90;;;22.02;76.72;103225.31;4966897;28;20041;-72
2021/07/08 09:27:04;;;;;;;2.70;2.20;;;22.80;99.90;;;22.05;78.06;103225.13;4958095;28;20037;-72
2021/07/08 09:30:00;;;;;;;2.90;1.80;;;22.70;99.90;;;21.92;75.84;103263.38;4987377;28;20021;-71
2021/07/08 09:32:27;;;;;;;3.03;1.38;;;22.70;99.90;;;22.04;73.93;103239.50;5024652;28;20473;-71
2021/07/08 09:34:59;;;;;;;4.03;1.52;;;22.80;99.90;;;21.96;72.63;103214.91;5019268;28;20489;-72
2021/07/08 09:38:15;;;;;;;3.45;1.40;;;22.70;99.90;;;21.68;75.96;103219.09;4973576;28;20510;-71
2021/07/08 09:41:39;;;;;;;2.78;1.42;;;22.60;99.90;;;21.70;76.38;103187.72;4983441;28;20044;-71
2021/07/08 09:44:51;;;;;;;2.88;1.52;;;22.60;99.90;;;21.73;76.06;103167.91;4991763;28;20053;-71
2021/07/08 09:48:02;;;;;;;3.65;1.50;;;22.60;99.90;;;21.86;72.47;103182.41;4983807;28;20100;-71
2021/07/08 09:51:11;;;;;;;2.63;1.30;;;22.60;99.90;;;21.70;69.39;103159.09;4970067;28;20063;-71
2021/07/08 09:54:26;;;;;;;1.45;1.00;;;22.80;99.90;;;22.26;71.25;103196.25;5038437;28;20400;-71
2021/07/08 09:57:53;;;;;;;3.67;1.02;;;23.30;99.90;;;22.72;64.60;103178.34;4973705;28;20119;-72
2021/07/08 10:01:05;;;;;;;1.50;0.90;;;23.50;99.90;;;22.79;64.11;103153.81;4974191;28;20029;-71
2021/07/08 10:04:10;;;;;;;2.17;1.60;;;23.40;99.90;;;22.61;63.14;106228.63;4968728;28;20053;-71
2021/07/08 10:07:18;;;;;;;5.45;1.02;;;23.40;99.90;;;22.02;62.50;106671.28;4978649;28;20067;-71
2021/07/08 10:10:24;;;;;;;0.52;0.50;;;23.20;99.90;;;22.54;63.25;104650.94;4959913;28;20157;-71
2021/07/08 10:13:16;;;;;;;1.85;0.68;;;23.10;99.90;;;22.21;58.42;104511.59;4982306;28;20048;-71
2021/07/08 10:16:47;;;;;;;1.00;0.60;;;23.10;99.90;;;22.43;60.54;104167.13;4966158;28;20036;-71
2021/07/08 10:24:33;;;;;;;2.10;0.70;;;23.10;99.90;;;22.49;62.07;103409.72;4974586;28;20107;-72
2021/07/08 10:28:36;;;;;;;1.75;0.80;;;23.30;99.90;;;22.73;59.30;103314.34;4975259;28;20459;-71